createdAt,value
2022-10-05T00:02:01.079Z,86.07
2022-10-05T00:04:35.727Z,85.33
2022-10-05T00:07:16.137Z,86.45
2022-10-05T00:09:51.503Z,86.19
2022-10-05T00:12:25.331Z,86.25
2022-10-05T00:15:02.693Z,86.40
2022-10-05T00:17:38.431Z,86.93
2022-10-05T00:20:19.615Z,86.62
2022-10-05T00:22:51.847Z,86.33
2022-10-05T00:25:25.309Z,86.68
2022-10-05T00:27:59.667Z,87.37
2022-10-05T00:30:37.263Z,87.03
2022-10-05T00:33:14.934Z,86.93
2022-10-05T00:35:47.172Z,87.53
2022-10-05T00:38:19.265Z,87.46
2022-10-05T00:41:05.138Z,88.37
2022-10-05T00:43:59.813Z,87.97
2022-10-05T00:46:40.682Z,87.85
2022-10-05T00:49:25.453Z,87.71
2022-10-05T00:52:10.482Z,87.45
2022-10-05T00:54:47.303Z,87.28
2022-10-05T00:57:37.194Z,87.52
2022-10-05T01:00:13.296Z,87.84
2022-10-05T01:02:55.621Z,87.97
2022-10-05T01:05:44.819Z,87.21
2022-10-05T01:08:25.710Z,87.89
2022-10-05T01:11:05.529Z,87.43
2022-10-05T01:13:49.119Z,87.34
2022-10-05T01:16:29.850Z,87.38
2022-10-05T01:19:13.035Z,86.80
2022-10-05T01:21:54.296Z,87.39
2022-10-05T01:24:43.112Z,86.14
2022-10-05T01:27:32.913Z,86.01
2022-10-05T01:30:10.380Z,86.41
2022-10-05T01:32:47.960Z,86.53
2022-10-05T01:35:31.107Z,86.35
2022-10-05T01:38:15.411Z,86.38
2022-10-05T01:40:58.195Z,87.45
2022-10-05T01:43:41.840Z,86.75
2022-10-05T01:46:26.676Z,86.75
2022-10-05T01:49:15.212Z,86.14
2022-10-05T01:51:57.560Z,86.09
2022-10-05T01:54:42.999Z,85.85
2022-10-05T01:57:24.683Z,86.86
2022-10-05T02:00:09.712Z,86.32
2022-10-05T02:02:45.144Z,86.98
2022-10-05T02:05:24.393Z,86.75
2022-10-05T02:08:00.223Z,86.88
2022-10-05T02:10:36.913Z,87.14
2022-10-05T02:13:14.646Z,87.33
2022-10-05T02:15:54.843Z,87.42
2022-10-05T02:18:32.785Z,87.29
2022-10-05T02:21:07.006Z,86.60
2022-10-05T02:23:42.942Z,86.83
2022-10-05T02:26:16.628Z,86.92
2022-10-05T02:28:54.436Z,86.92
2022-10-05T02:31:34.320Z,86.86
2022-10-05T02:34:26.753Z,87.74
2022-10-05T02:37:15.817Z,87.87
2022-10-05T02:39:55.823Z,88.37
2022-10-05T02:42:32.701Z,87.82
2022-10-05T02:45:12.223Z,88.23
2022-10-05T02:47:54.491Z,87.95
2022-10-05T02:50:35.087Z,88.22
2022-10-05T02:53:15.800Z,87.99
2022-10-05T02:55:55.546Z,88.09
2022-10-05T02:58:30.839Z,88.75
2022-10-05T03:01:09.361Z,88.80
2022-10-05T03:03:48.346Z,89.02
2022-10-05T03:06:25.117Z,88.43
2022-10-05T03:09:04.516Z,88.56
2022-10-05T03:11:47.736Z,89.21
2022-10-05T03:14:26.488Z,89.30
2022-10-05T03:17:09.521Z,88.35
2022-10-05T03:20:07.372Z,88.18
2022-10-05T03:22:52.131Z,88.06
2022-10-05T03:25:59.602Z,88.07
2022-10-05T03:28:39.377Z,87.31
2022-10-05T03:31:22.155Z,87.30
2022-10-05T03:34:02.757Z,87.30
2022-10-05T03:36:47.628Z,86.45
2022-10-05T03:39:29.400Z,86.84
2022-10-05T03:42:11.099Z,85.97
2022-10-05T03:44:52.942Z,86.56
2022-10-05T03:47:34.164Z,86.03
2022-10-05T03:50:26.075Z,84.75
2022-10-05T03:53:06.018Z,83.94
2022-10-05T03:55:44.134Z,83.87
2022-10-05T03:58:22.651Z,82.69
2022-10-05T04:01:03.851Z,82.94
2022-10-05T04:03:40.927Z,84.27
2022-10-05T04:06:19.625Z,84.43
2022-10-05T04:08:57.993Z,82.63
2022-10-05T04:11:35.156Z,83.68
2022-10-05T04:14:13.987Z,83.79
2022-10-05T04:16:50.427Z,83.62
2022-10-05T04:19:26.652Z,83.35
2022-10-05T04:22:06.885Z,83.13
2022-10-05T04:24:45.372Z,84.13
2022-10-05T04:27:22.718Z,83.48
2022-10-05T04:30:00.527Z,84.64
2022-10-05T04:32:39.863Z,84.00
2022-10-05T04:35:41.201Z,83.54
2022-10-05T04:38:37.719Z,83.16
2022-10-05T04:41:28.757Z,83.49
2022-10-05T04:44:16.135Z,84.13
2022-10-05T04:47:07.682Z,84.47
2022-10-05T04:49:58.193Z,84.36
2022-10-05T04:52:41.270Z,84.47
2022-10-05T04:55:25.613Z,85.05
2022-10-05T04:58:09.465Z,84.51
2022-10-05T05:00:53.072Z,84.54
2022-10-05T05:03:43.263Z,84.89
2022-10-05T05:06:27.947Z,84.78
2022-10-05T05:09:16.860Z,85.03
2022-10-05T05:12:04.632Z,85.08
2022-10-05T05:15:03.686Z,84.58
2022-10-05T05:17:51.772Z,84.75
2022-10-05T05:20:31.286Z,84.95
2022-10-05T05:23:13.046Z,85.24
2022-10-05T05:25:51.450Z,84.98
2022-10-05T05:28:33.377Z,85.47
2022-10-05T05:31:16.234Z,85.11
2022-10-05T05:34:00.097Z,84.11
2022-10-05T05:39:56.805Z,84.24
2022-10-05T05:42:37.581Z,83.98
2022-10-05T05:45:20.673Z,83.35
2022-10-05T05:47:57.857Z,82.78
2022-10-05T05:50:47.653Z,83.05
2022-10-05T05:53:24.428Z,83.52
2022-10-05T05:56:01.577Z,83.38
2022-10-05T05:58:39.056Z,83.81
2022-10-05T06:01:32.222Z,83.57
2022-10-05T06:04:25.175Z,82.71
2022-10-05T06:07:05.215Z,81.86
2022-10-05T06:09:42.735Z,83.08
2022-10-05T06:12:18.455Z,82.22
2022-10-05T10:16:50.240Z,58.85
2022-10-05T10:20:11.204Z,60.14
2022-10-05T10:23:13.869Z,57.76
2022-10-05T10:26:19.350Z,59.41
2022-10-05T10:29:13.572Z,59.86
2022-10-05T10:31:59.515Z,61.24
2022-10-05T10:35:00.436Z,59.86
2022-10-05T10:37:42.674Z,62.19
2022-10-05T10:40:36.040Z,58.79
2022-10-05T10:43:40.312Z,60.32
2022-10-05T10:46:24.031Z,59.73
2022-10-05T10:49:16.086Z,62.85
2022-10-05T10:52:14.230Z,59.08
2022-10-05T10:55:30.551Z,58.89
2022-10-05T10:58:28.312Z,58.33
2022-10-05T11:01:13.359Z,55.28
2022-10-05T11:04:22.790Z,55.92
2022-10-05T11:07:37.996Z,55.19
2022-10-05T11:10:52.070Z,55.57
2022-10-05T11:14:02.955Z,52.67
2022-10-05T11:17:16.271Z,50.25
2022-10-05T11:20:11.589Z,51.17
2022-10-05T11:23:26.989Z,50.82
2022-10-05T11:26:28.478Z,52.60
2022-10-05T11:29:27.382Z,52.74
2022-10-05T11:32:41.990Z,53.45
2022-10-05T11:35:54.510Z,51.12
2022-10-05T11:38:57.391Z,53.20
2022-10-05T11:41:55.951Z,52.57
2022-10-05T11:44:59.998Z,53.65
2022-10-05T11:47:37.238Z,55.19
2022-10-05T11:50:24.957Z,53.73
2022-10-05T11:53:05.189Z,54.11
2022-10-05T11:55:48.863Z,56.88
2022-10-05T11:58:29.847Z,57.16
2022-10-05T12:01:09.245Z,59.05
2022-10-05T12:03:50.450Z,59.42
2022-10-05T12:06:43.095Z,57.81
2022-10-05T12:09:30.210Z,56.43
2022-10-05T12:12:14.729Z,56.16
2022-10-05T12:14:54.685Z,56.57
2022-10-05T12:17:38.874Z,55.04
2022-10-05T12:20:17.696Z,54.85
2022-10-05T12:22:56.789Z,54.94
2022-10-05T12:25:37.458Z,54.07
2022-10-05T12:28:15.480Z,55.37
2022-10-05T12:31:13.487Z,53.62
2022-10-05T12:33:52.050Z,53.33
2022-10-05T12:36:46.275Z,54.85
2022-10-05T12:39:30.052Z,53.71
2022-10-05T12:42:15.692Z,53.25
2022-10-05T12:45:06.653Z,53.36
2022-10-05T12:47:55.260Z,55.17
2022-10-05T12:50:33.930Z,53.63
2022-10-05T12:53:32.085Z,54.22
2022-10-05T12:56:12.066Z,54.52
2022-10-05T12:58:56.030Z,54.58
2022-10-05T13:01:42.229Z,54.85
2022-10-05T13:04:25.703Z,55.12
2022-10-05T13:07:16.825Z,54.11
2022-10-05T13:09:59.143Z,55.30
2022-10-05T13:12:42.582Z,55.00
2022-10-05T13:15:25.501Z,55.43
2022-10-05T13:18:09.406Z,55.91
2022-10-05T13:20:57.135Z,54.92
2022-10-05T13:23:38.047Z,55.39
2022-10-05T13:26:14.438Z,54.36
2022-10-05T13:28:56.054Z,53.93
2022-10-05T13:31:35.340Z,53.53
2022-10-05T13:34:21.126Z,53.03
2022-10-05T13:37:14.210Z,53.89
2022-10-05T13:39:59.165Z,53.78
2022-10-05T13:42:38.757Z,54.48
2022-10-05T13:45:20.397Z,53.66
2022-10-05T13:48:06.857Z,54.22
2022-10-05T13:50:47.816Z,55.60
2022-10-05T13:53:28.433Z,54.30
2022-10-05T13:56:05.575Z,54.40
2022-10-05T13:58:44.895Z,54.04
2022-10-05T14:01:23.136Z,55.46
2022-10-05T14:04:17.944Z,54.95
2022-10-05T14:06:52.784Z,54.69
2022-10-05T14:09:33.695Z,54.53
2022-10-05T14:12:17.155Z,54.58
2022-10-05T14:14:53.178Z,54.05
2022-10-05T14:23:53.498Z,54.26
2022-10-05T14:26:36.695Z,55.85
2022-10-05T14:29:28.503Z,56.43
2022-10-05T14:32:10.862Z,56.10
2022-10-05T14:35:36.777Z,56.08
2022-10-05T14:39:19.295Z,57.08
2022-10-05T14:42:22.375Z,57.29
2022-10-05T14:45:17.375Z,57.70
2022-10-05T14:48:27.614Z,57.92
2022-10-05T14:51:06.421Z,57.99
2022-10-05T14:54:01.546Z,58.28
2022-10-05T14:58:11.176Z,58.83
2022-10-05T15:05:15.660Z,58.20
2022-10-05T15:08:11.904Z,58.42
2022-10-05T15:15:41.699Z,58.24
2022-10-05T15:18:40.378Z,58.86
2022-10-05T15:21:42.545Z,58.35
2022-10-05T15:24:22.182Z,58.27
2022-10-05T15:26:56.698Z,58.95
2022-10-05T15:29:52.347Z,59.20
2022-10-05T15:33:38.305Z,59.59
2022-10-05T15:36:39.656Z,59.27
2022-10-05T15:39:39.225Z,59.67
2022-10-05T15:42:19.854Z,60.24
2022-10-05T15:45:06.937Z,60.56
2022-10-05T15:47:56.136Z,60.78
2022-10-05T15:51:59.509Z,61.34
2022-10-05T15:55:19.018Z,61.73
2022-10-05T15:59:17.849Z,62.90
2022-10-05T16:02:47.864Z,63.33
2022-10-05T16:06:05.788Z,63.84
2022-10-05T16:09:02.607Z,63.46
2022-10-05T16:12:21.411Z,63.48
2022-10-05T16:15:48.894Z,64.07
2022-10-05T16:18:43.654Z,64.14
2022-10-05T16:21:31.734Z,63.37
2022-10-05T16:24:17.574Z,64.09
2022-10-05T16:27:01.692Z,63.88
2022-10-05T16:29:42.972Z,64.48
2022-10-05T16:33:01.692Z,64.44
2022-10-05T16:36:03.291Z,65.03
2022-10-05T16:38:49.773Z,65.02
2022-10-05T16:45:59.485Z,65.09
2022-10-05T16:48:34.413Z,65.28
2022-10-05T16:51:24.452Z,66.22
2022-10-05T16:54:35.731Z,66.83
2022-10-05T16:57:16.852Z,66.74
2022-10-05T17:04:50.852Z,67.26
2022-10-05T17:07:57.090Z,67.76
2022-10-05T17:11:00.596Z,67.34
2022-10-05T17:14:33.079Z,68.99
2022-10-05T17:17:47.199Z,69.63
2022-10-05T17:21:37.080Z,69.95
2022-10-05T17:24:38.677Z,71.29
2022-10-05T17:27:27.556Z,71.22
2022-10-05T17:31:05.369Z,71.73
2022-10-05T17:34:30.557Z,72.13
2022-10-05T17:38:03.565Z,72.58
2022-10-05T17:41:06.677Z,72.89
2022-10-05T17:43:41.636Z,73.19
2022-10-05T17:46:14.257Z,73.11
2022-10-05T17:49:21.244Z,73.21
2022-10-05T17:52:27.036Z,73.02
2022-10-05T17:55:49.796Z,73.00
2022-10-05T17:59:03.398Z,73.79
2022-10-05T18:01:40.230Z,74.52
2022-10-05T18:04:48.717Z,74.49
2022-10-05T18:08:34.945Z,74.03
2022-10-05T18:11:38.520Z,75.20
2022-10-05T18:14:26.717Z,75.39
2022-10-05T18:17:38.164Z,75.79
2022-10-05T18:21:28.236Z,76.12
2022-10-05T18:24:07.918Z,76.89
2022-10-05T18:27:30.799Z,76.77
2022-10-05T18:30:17.756Z,76.92
2022-10-05T18:33:33.685Z,77.10
2022-10-05T18:36:56.002Z,78.08
2022-10-05T18:40:05.917Z,78.61
2022-10-05T18:42:44.877Z,78.39
2022-10-05T18:49:00.607Z,79.06
2022-10-05T18:51:46.316Z,78.69
2022-10-05T18:54:36.756Z,79.09
2022-10-05T18:57:53.116Z,79.34
2022-10-05T19:00:59.438Z,79.76
2022-10-05T19:04:17.959Z,79.45
2022-10-05T19:08:17.004Z,79.48
2022-10-05T19:11:23.397Z,81.19
2022-10-05T19:14:17.686Z,80.75
2022-10-05T19:17:13.396Z,79.95
2022-10-05T19:20:06.517Z,80.61
2022-10-05T19:23:29.156Z,81.17
2022-10-05T19:26:12.477Z,79.97
2022-10-05T19:28:57.359Z,79.91
2022-10-05T19:31:50.998Z,80.62
2022-10-05T19:34:56.238Z,80.62
2022-10-05T19:37:38.519Z,81.04
2022-10-05T19:40:58.115Z,81.36
2022-10-05T19:44:39.358Z,81.49
2022-10-05T19:47:22.638Z,81.64
2022-10-05T19:50:23.916Z,81.44
2022-10-05T19:53:04.399Z,80.94
2022-10-05T19:55:45.812Z,81.42
2022-10-05T19:58:27.013Z,81.16
2022-10-05T20:01:16.371Z,82.43
2022-10-05T20:03:51.198Z,82.97
2022-10-05T20:06:57.917Z,82.69
2022-10-05T20:09:30.077Z,82.32
2022-10-05T20:12:04.835Z,82.41
2022-10-05T20:14:59.399Z,82.08
2022-10-05T20:17:44.718Z,81.59
2022-10-05T20:24:13.797Z,81.05
2022-10-05T20:27:01.155Z,80.97
2022-10-05T20:29:35.715Z,81.79
2022-10-05T20:32:30.580Z,81.77
2022-10-05T20:35:27.196Z,82.50
2022-10-05T20:38:31.145Z,81.16
2022-10-05T20:41:26.998Z,81.43
2022-10-05T20:43:59.323Z,81.79
2022-10-05T20:46:32.231Z,81.52
2022-10-05T20:49:04.600Z,82.07
2022-10-05T20:51:37.157Z,82.52
2022-10-05T20:54:10.437Z,81.86
2022-10-05T20:56:46.122Z,82.76
2022-10-05T20:59:18.956Z,82.28
2022-10-05T21:01:51.678Z,81.93
2022-10-05T21:04:25.276Z,82.92
2022-10-05T21:06:58.157Z,84.57
2022-10-05T21:09:30.397Z,83.60
2022-10-05T21:12:05.605Z,83.84
2022-10-05T21:14:38.158Z,83.48
2022-10-05T21:17:12.317Z,83.81
2022-10-05T21:19:44.558Z,83.32
2022-10-05T21:22:17.036Z,82.81
2022-10-05T21:24:49.677Z,82.90
2022-10-05T21:27:25.197Z,83.79
2022-10-05T21:29:57.515Z,82.87
2022-10-05T21:32:30.239Z,82.88
2022-10-05T21:35:02.440Z,82.62
2022-10-05T21:37:34.878Z,83.71
2022-10-05T21:40:07.681Z,83.56
2022-10-05T21:42:43.278Z,83.50
2022-10-05T21:45:15.556Z,83.17
2022-10-05T21:47:48.238Z,83.73
2022-10-05T21:50:23.078Z,83.92
2022-10-05T21:52:56.294Z,83.62
2022-10-05T21:55:28.999Z,83.61
2022-10-05T21:58:05.117Z,83.63
2022-10-05T22:00:37.425Z,84.44
2022-10-05T22:03:09.998Z,83.95
2022-10-05T22:05:42.507Z,83.84
2022-10-05T22:08:24.246Z,83.69
2022-10-05T22:10:56.516Z,83.67
2022-10-05T22:13:43.563Z,82.85
2022-10-05T22:16:17.370Z,83.00
2022-10-05T22:18:50.355Z,82.52
2022-10-05T22:21:22.757Z,82.29
2022-10-05T22:23:55.356Z,82.73
2022-10-05T22:26:28.037Z,81.93
2022-10-05T22:29:04.638Z,82.91
2022-10-05T22:31:37.133Z,82.25
2022-10-05T22:34:39.155Z,81.98
2022-10-05T22:37:14.637Z,82.85
2022-10-05T22:39:47.396Z,81.81
2022-10-05T22:42:19.605Z,82.09
2022-10-05T22:47:45.485Z,82.52
2022-10-05T22:50:18.235Z,82.47
2022-10-05T22:52:54.797Z,82.85
2022-10-05T22:55:27.763Z,83.63
2022-10-05T22:58:00.156Z,82.93
2022-10-05T23:00:56.902Z,82.50
2022-10-05T23:03:44.637Z,82.99
2022-10-05T23:06:19.236Z,82.68
2022-10-05T23:08:51.524Z,82.55
2022-10-05T23:11:26.287Z,83.86
2022-10-05T23:14:00.642Z,83.85
2022-10-05T23:16:36.213Z,84.10
2022-10-05T23:19:08.443Z,84.09
2022-10-05T23:21:41.369Z,83.67
2022-10-05T23:24:13.515Z,83.62
2022-10-05T23:26:46.039Z,84.75
2022-10-05T23:29:18.315Z,84.08
2022-10-05T23:31:53.479Z,84.64
2022-10-05T23:34:26.004Z,85.36
2022-10-05T23:36:58.596Z,85.71
2022-10-05T23:39:30.797Z,84.77
2022-10-05T23:42:03.392Z,84.71
2022-10-05T23:44:35.718Z,85.30
2022-10-05T23:47:13.678Z,85.61
2022-10-05T23:49:46.076Z,85.46
2022-10-05T23:52:18.476Z,85.54
2022-10-05T23:54:52.528Z,85.85
2022-10-05T23:57:25.046Z,85.98
2022-10-05T23:59:57.275Z,86.95
